sensor_id;sensor_type;location;lat;lon;timestamp;P1;durP1;ratioP1;P2;durP2;ratioP2
38053;SDS011;23859;50.672;7.164;2022-12-13T00:00:12;63.08;;;27.88;;
38053;SDS011;23859;50.672;7.164;2022-12-13T00:02:41;65.70;;;27.48;;
38053;SDS011;23859;50.672;7.164;2022-12-13T00:05:08;63.45;;;26.35;;
38053;SDS011;23859;50.672;7.164;2022-12-13T00:07:35;58.25;;;26.38;;
38053;SDS011;23859;50.672;7.164;2022-12-13T00:10:02;61.47;;;26.60;;
38053;SDS011;23859;50.672;7.164;2022-12-13T00:12:29;62.65;;;26.63;;
38053;SDS011;23859;50.672;7.164;2022-12-13T00:14:55;59.03;;;27.23;;
38053;SDS011;23859;50.672;7.164;2022-12-13T00:17:21;67.72;;;28.85;;
38053;SDS011;23859;50.672;7.164;2022-12-13T00:19:47;63.15;;;27.15;;
38053;SDS011;23859;50.672;7.164;2022-12-13T00:22:14;64.47;;;28.10;;
38053;SDS011;23859;50.672;7.164;2022-12-13T00:24:43;73.60;;;29.70;;
38053;SDS011;23859;50.672;7.164;2022-12-13T00:27:09;64.25;;;28.58;;
38053;SDS011;23859;50.672;7.164;2022-12-13T00:29:35;73.88;;;28.50;;
38053;SDS011;23859;50.672;7.164;2022-12-13T00:32:01;71.55;;;28.92;;
38053;SDS011;23859;50.672;7.164;2022-12-13T00:34:28;76.78;;;27.35;;
38053;SDS011;23859;50.672;7.164;2022-12-13T00:36:54;77.65;;;29.13;;
38053;SDS011;23859;50.672;7.164;2022-12-13T00:39:22;75.78;;;28.83;;
38053;SDS011;23859;50.672;7.164;2022-12-13T00:41:48;92.20;;;33.00;;
38053;SDS011;23859;50.672;7.164;2022-12-13T00:44:15;72.45;;;30.02;;
38053;SDS011;23859;50.672;7.164;2022-12-13T00:46:42;73.35;;;31.67;;
38053;SDS011;23859;50.672;7.164;2022-12-13T00:49:09;75.55;;;30.25;;
38053;SDS011;23859;50.672;7.164;2022-12-13T00:51:36;70.32;;;26.90;;
38053;SDS011;23859;50.672;7.164;2022-12-13T00:54:02;72.80;;;32.72;;
38053;SDS011;23859;50.672;7.164;2022-12-13T00:56:29;74.68;;;30.83;;
38053;SDS011;23859;50.672;7.164;2022-12-13T00:58:56;70.10;;;29.13;;
38053;SDS011;23859;50.672;7.164;2022-12-13T01:01:27;68.22;;;28.20;;
38053;SDS011;23859;50.672;7.164;2022-12-13T01:03:57;71.22;;;29.52;;
38053;SDS011;23859;50.672;7.164;2022-12-13T01:09:03;84.25;;;30.48;;
38053;SDS011;23859;50.672;7.164;2022-12-13T01:11:31;78.38;;;31.85;;
38053;SDS011;23859;50.672;7.164;2022-12-13T01:13:57;80.20;;;32.85;;
38053;SDS011;23859;50.672;7.164;2022-12-13T01:16:23;78.10;;;30.10;;
38053;SDS011;23859;50.672;7.164;2022-12-13T01:18:50;75.50;;;31.17;;
38053;SDS011;23859;50.672;7.164;2022-12-13T01:21:16;79.18;;;31.08;;
38053;SDS011;23859;50.672;7.164;2022-12-13T01:23:44;71.32;;;30.20;;
38053;SDS011;23859;50.672;7.164;2022-12-13T01:26:12;77.00;;;30.70;;
38053;SDS011;23859;50.672;7.164;2022-12-13T01:28:41;81.38;;;29.45;;
38053;SDS011;23859;50.672;7.164;2022-12-13T01:31:09;77.13;;;29.05;;
38053;SDS011;23859;50.672;7.164;2022-12-13T01:33:40;86.70;;;31.40;;
38053;SDS011;23859;50.672;7.164;2022-12-13T01:36:07;71.90;;;29.67;;
38053;SDS011;23859;50.672;7.164;2022-12-13T01:38:44;69.68;;;30.10;;
38053;SDS011;23859;50.672;7.164;2022-12-13T01:41:17;69.53;;;26.77;;
38053;SDS011;23859;50.672;7.164;2022-12-13T01:46:11;72.93;;;29.02;;
38053;SDS011;23859;50.672;7.164;2022-12-13T01:48:41;75.63;;;30.10;;
38053;SDS011;23859;50.672;7.164;2022-12-13T01:51:18;74.35;;;31.27;;
38053;SDS011;23859;50.672;7.164;2022-12-13T01:53:50;96.63;;;35.13;;
38053;SDS011;23859;50.672;7.164;2022-12-13T01:56:19;85.15;;;31.35;;
38053;SDS011;23859;50.672;7.164;2022-12-13T01:58:50;76.30;;;30.83;;
38053;SDS011;23859;50.672;7.164;2022-12-13T02:01:18;75.40;;;30.35;;
38053;SDS011;23859;50.672;7.164;2022-12-13T02:03:45;73.78;;;29.45;;
38053;SDS011;23859;50.672;7.164;2022-12-13T02:06:54;83.40;;;32.03;;
38053;SDS011;23859;50.672;7.164;2022-12-13T02:09:05;82.57;;;30.75;;
38053;SDS011;23859;50.672;7.164;2022-12-13T02:11:33;74.10;;;29.38;;
38053;SDS011;23859;50.672;7.164;2022-12-13T02:14:02;79.70;;;30.92;;
38053;SDS011;23859;50.672;7.164;2022-12-13T02:27:55;75.00;;;30.77;;
38053;SDS011;23859;50.672;7.164;2022-12-13T02:33:10;90.53;;;34.40;;
38053;SDS011;23859;50.672;7.164;2022-12-13T02:36:13;78.90;;;33.80;;
38053;SDS011;23859;50.672;7.164;2022-12-13T02:38:59;80.75;;;32.20;;
38053;SDS011;23859;50.672;7.164;2022-12-13T02:41:48;87.57;;;35.55;;
38053;SDS011;23859;50.672;7.164;2022-12-13T02:44:28;92.57;;;35.28;;
38053;SDS011;23859;50.672;7.164;2022-12-13T02:47:04;90.20;;;32.60;;
38053;SDS011;23859;50.672;7.164;2022-12-13T02:49:33;86.88;;;36.30;;
38053;SDS011;23859;50.672;7.164;2022-12-13T02:52:02;94.03;;;34.70;;
38053;SDS011;23859;50.672;7.164;2022-12-13T02:54:31;92.88;;;35.15;;
38053;SDS011;23859;50.672;7.164;2022-12-13T02:56:58;97.38;;;39.53;;
38053;SDS011;23859;50.672;7.164;2022-12-13T02:59:26;77.53;;;31.15;;
38053;SDS011;23859;50.672;7.164;2022-12-13T03:01:59;92.25;;;32.72;;
38053;SDS011;23859;50.672;7.164;2022-12-13T03:04:41;82.53;;;30.63;;
38053;SDS011;23859;50.672;7.164;2022-12-13T03:07:37;95.35;;;33.80;;
38053;SDS011;23859;50.672;7.164;2022-12-13T03:10:14;95.15;;;33.45;;
38053;SDS011;23859;50.672;7.164;2022-12-13T03:15:44;84.88;;;29.40;;
38053;SDS011;23859;50.672;7.164;2022-12-13T03:18:23;82.85;;;31.08;;
38053;SDS011;23859;50.672;7.164;2022-12-13T03:21:01;88.70;;;33.15;;
38053;SDS011;23859;50.672;7.164;2022-12-13T03:23:32;94.07;;;32.65;;
38053;SDS011;23859;50.672;7.164;2022-12-13T03:26:00;83.82;;;35.15;;
38053;SDS011;23859;50.672;7.164;2022-12-13T03:28:34;93.05;;;34.63;;
38053;SDS011;23859;50.672;7.164;2022-12-13T03:31:00;80.20;;;31.38;;
38053;SDS011;23859;50.672;7.164;2022-12-13T03:33:27;85.43;;;34.05;;
38053;SDS011;23859;50.672;7.164;2022-12-13T03:35:53;96.40;;;35.35;;
38053;SDS011;23859;50.672;7.164;2022-12-13T03:38:19;94.80;;;36.97;;
38053;SDS011;23859;50.672;7.164;2022-12-13T03:40:46;90.68;;;33.70;;
38053;SDS011;23859;50.672;7.164;2022-12-13T03:43:12;83.95;;;33.67;;
38053;SDS011;23859;50.672;7.164;2022-12-13T03:45:38;87.57;;;33.03;;
38053;SDS011;23859;50.672;7.164;2022-12-13T03:48:04;87.07;;;35.45;;
38053;SDS011;23859;50.672;7.164;2022-12-13T03:50:31;81.75;;;31.80;;
38053;SDS011;23859;50.672;7.164;2022-12-13T03:52:57;83.93;;;33.58;;
38053;SDS011;23859;50.672;7.164;2022-12-13T03:55:24;81.35;;;29.05;;
38053;SDS011;23859;50.672;7.164;2022-12-13T03:57:51;90.28;;;33.80;;
38053;SDS011;23859;50.672;7.164;2022-12-13T04:00:17;81.22;;;33.38;;
38053;SDS011;23859;50.672;7.164;2022-12-13T04:02:43;76.45;;;30.83;;
38053;SDS011;23859;50.672;7.164;2022-12-13T04:05:09;89.85;;;32.50;;
38053;SDS011;23859;50.672;7.164;2022-12-13T04:07:35;82.00;;;33.17;;
38053;SDS011;23859;50.672;7.164;2022-12-13T04:10:02;93.72;;;33.83;;
38053;SDS011;23859;50.672;7.164;2022-12-13T04:12:29;79.32;;;32.20;;
38053;SDS011;23859;50.672;7.164;2022-12-13T04:15:13;76.47;;;29.73;;
38053;SDS011;23859;50.672;7.164;2022-12-13T04:17:39;77.57;;;31.13;;
38053;SDS011;23859;50.672;7.164;2022-12-13T04:20:05;77.50;;;30.88;;
38053;SDS011;23859;50.672;7.164;2022-12-13T04:22:32;79.43;;;32.60;;
38053;SDS011;23859;50.672;7.164;2022-12-13T04:24:58;76.93;;;31.42;;
38053;SDS011;23859;50.672;7.164;2022-12-13T04:27:24;83.40;;;31.10;;
38053;SDS011;23859;50.672;7.164;2022-12-13T04:29:50;86.38;;;32.90;;
38053;SDS011;23859;50.672;7.164;2022-12-13T04:32:16;77.18;;;31.60;;
38053;SDS011;23859;50.672;7.164;2022-12-13T04:34:42;75.20;;;29.92;;
38053;SDS011;23859;50.672;7.164;2022-12-13T04:37:08;78.20;;;30.65;;
38053;SDS011;23859;50.672;7.164;2022-12-13T04:39:34;70.10;;;29.05;;
38053;SDS011;23859;50.672;7.164;2022-12-13T04:42:00;76.55;;;31.08;;
38053;SDS011;23859;50.672;7.164;2022-12-13T04:44:26;80.65;;;29.67;;
38053;SDS011;23859;50.672;7.164;2022-12-13T04:46:52;71.85;;;29.17;;
38053;SDS011;23859;50.672;7.164;2022-12-13T04:49:18;71.45;;;29.13;;
38053;SDS011;23859;50.672;7.164;2022-12-13T04:51:44;72.75;;;31.02;;
38053;SDS011;23859;50.672;7.164;2022-12-13T04:54:11;77.78;;;29.25;;
38053;SDS011;23859;50.672;7.164;2022-12-13T04:56:37;74.82;;;29.17;;
38053;SDS011;23859;50.672;7.164;2022-12-13T04:59:03;77.28;;;31.42;;
38053;SDS011;23859;50.672;7.164;2022-12-13T05:01:29;77.45;;;30.20;;
38053;SDS011;23859;50.672;7.164;2022-12-13T05:03:55;67.10;;;27.45;;
38053;SDS011;23859;50.672;7.164;2022-12-13T05:06:21;78.78;;;32.00;;
38053;SDS011;23859;50.672;7.164;2022-12-13T05:08:47;60.72;;;27.33;;
38053;SDS011;23859;50.672;7.164;2022-12-13T05:11:13;64.75;;;27.42;;
38053;SDS011;23859;50.672;7.164;2022-12-13T05:13:39;73.57;;;29.73;;
38053;SDS011;23859;50.672;7.164;2022-12-13T05:16:06;62.55;;;27.85;;
38053;SDS011;23859;50.672;7.164;2022-12-13T05:18:33;70.50;;;27.15;;
38053;SDS011;23859;50.672;7.164;2022-12-13T05:21:01;71.40;;;28.15;;
38053;SDS011;23859;50.672;7.164;2022-12-13T05:23:31;70.13;;;27.80;;
38053;SDS011;23859;50.672;7.164;2022-12-13T05:25:57;69.63;;;27.77;;
38053;SDS011;23859;50.672;7.164;2022-12-13T05:28:24;69.30;;;27.73;;
38053;SDS011;23859;50.672;7.164;2022-12-13T05:30:52;65.40;;;27.00;;
38053;SDS011;23859;50.672;7.164;2022-12-13T05:33:20;65.25;;;26.63;;
38053;SDS011;23859;50.672;7.164;2022-12-13T05:35:47;71.28;;;26.73;;
38053;SDS011;23859;50.672;7.164;2022-12-13T05:38:13;59.90;;;25.83;;
38053;SDS011;23859;50.672;7.164;2022-12-13T05:40:39;73.28;;;27.77;;
38053;SDS011;23859;50.672;7.164;2022-12-13T05:43:06;69.63;;;26.77;;
38053;SDS011;23859;50.672;7.164;2022-12-13T05:45:33;66.45;;;26.02;;
38053;SDS011;23859;50.672;7.164;2022-12-13T05:47:59;67.45;;;26.45;;
38053;SDS011;23859;50.672;7.164;2022-12-13T05:50:25;69.38;;;27.08;;
38053;SDS011;23859;50.672;7.164;2022-12-13T05:52:51;66.28;;;27.80;;
38053;SDS011;23859;50.672;7.164;2022-12-13T05:55:18;66.88;;;26.70;;
38053;SDS011;23859;50.672;7.164;2022-12-13T05:57:44;63.45;;;26.60;;
38053;SDS011;23859;50.672;7.164;2022-12-13T06:00:10;68.22;;;27.13;;
38053;SDS011;23859;50.672;7.164;2022-12-13T06:02:40;61.22;;;26.20;;
38053;SDS011;23859;50.672;7.164;2022-12-13T06:05:08;69.80;;;28.30;;
38053;SDS011;23859;50.672;7.164;2022-12-13T06:07:35;57.28;;;27.00;;
38053;SDS011;23859;50.672;7.164;2022-12-13T06:10:02;63.67;;;24.45;;
38053;SDS011;23859;50.672;7.164;2022-12-13T06:12:29;58.45;;;24.20;;
38053;SDS011;23859;50.672;7.164;2022-12-13T06:14:55;61.10;;;25.42;;
38053;SDS011;23859;50.672;7.164;2022-12-13T06:17:21;59.80;;;27.50;;
38053;SDS011;23859;50.672;7.164;2022-12-13T06:19:49;59.28;;;24.08;;
38053;SDS011;23859;50.672;7.164;2022-12-13T06:22:16;62.20;;;24.60;;
38053;SDS011;23859;50.672;7.164;2022-12-13T06:24:42;63.25;;;25.30;;
38053;SDS011;23859;50.672;7.164;2022-12-13T06:27:08;62.08;;;24.88;;
38053;SDS011;23859;50.672;7.164;2022-12-13T06:29:34;77.07;;;28.15;;
38053;SDS011;23859;50.672;7.164;2022-12-13T06:32:00;61.67;;;24.75;;
38053;SDS011;23859;50.672;7.164;2022-12-13T06:34:28;66.13;;;26.65;;
38053;SDS011;23859;50.672;7.164;2022-12-13T06:36:55;60.53;;;25.27;;
38053;SDS011;23859;50.672;7.164;2022-12-13T06:39:21;68.55;;;26.92;;
38053;SDS011;23859;50.672;7.164;2022-12-13T06:41:47;72.32;;;28.90;;
38053;SDS011;23859;50.672;7.164;2022-12-13T06:44:13;70.90;;;28.17;;
38053;SDS011;23859;50.672;7.164;2022-12-13T06:46:39;66.43;;;27.33;;
38053;SDS011;23859;50.672;7.164;2022-12-13T06:49:05;74.93;;;29.63;;
38053;SDS011;23859;50.672;7.164;2022-12-13T06:51:32;62.35;;;27.13;;
38053;SDS011;23859;50.672;7.164;2022-12-13T06:53:59;74.47;;;27.95;;
38053;SDS011;23859;50.672;7.164;2022-12-13T06:56:28;73.03;;;29.08;;
38053;SDS011;23859;50.672;7.164;2022-12-13T06:58:55;72.60;;;26.92;;
38053;SDS011;23859;50.672;7.164;2022-12-13T07:01:22;64.07;;;27.42;;
38053;SDS011;23859;50.672;7.164;2022-12-13T07:03:48;68.93;;;26.85;;
38053;SDS011;23859;50.672;7.164;2022-12-13T07:06:15;73.07;;;26.80;;
38053;SDS011;23859;50.672;7.164;2022-12-13T07:08:46;67.75;;;27.65;;
38053;SDS011;23859;50.672;7.164;2022-12-13T07:11:13;75.05;;;28.17;;
38053;SDS011;23859;50.672;7.164;2022-12-13T07:13:41;68.63;;;26.88;;
38053;SDS011;23859;50.672;7.164;2022-12-13T07:16:08;70.20;;;26.90;;
38053;SDS011;23859;50.672;7.164;2022-12-13T07:18:34;73.72;;;27.10;;
38053;SDS011;23859;50.672;7.164;2022-12-13T07:21:04;67.07;;;27.02;;
38053;SDS011;23859;50.672;7.164;2022-12-13T07:23:30;62.05;;;24.83;;
38053;SDS011;23859;50.672;7.164;2022-12-13T07:25:58;61.53;;;26.25;;
38053;SDS011;23859;50.672;7.164;2022-12-13T07:28:24;70.20;;;26.70;;
38053;SDS011;23859;50.672;7.164;2022-12-13T07:30:50;59.53;;;26.42;;
38053;SDS011;23859;50.672;7.164;2022-12-13T07:33:16;59.92;;;26.33;;
38053;SDS011;23859;50.672;7.164;2022-12-13T07:35:42;75.45;;;26.80;;
38053;SDS011;23859;50.672;7.164;2022-12-13T07:38:09;68.57;;;27.23;;
38053;SDS011;23859;50.672;7.164;2022-12-13T07:40:36;65.38;;;26.30;;
38053;SDS011;23859;50.672;7.164;2022-12-13T07:43:04;62.92;;;25.70;;
38053;SDS011;23859;50.672;7.164;2022-12-13T07:45:30;65.80;;;24.75;;
38053;SDS011;23859;50.672;7.164;2022-12-13T07:47:57;68.82;;;25.90;;
38053;SDS011;23859;50.672;7.164;2022-12-13T07:50:27;63.22;;;24.48;;
38053;SDS011;23859;50.672;7.164;2022-12-13T07:52:53;68.30;;;26.45;;
38053;SDS011;23859;50.672;7.164;2022-12-13T07:55:19;62.35;;;24.15;;
38053;SDS011;23859;50.672;7.164;2022-12-13T07:57:45;59.15;;;24.23;;
38053;SDS011;23859;50.672;7.164;2022-12-13T08:00:11;60.90;;;24.67;;
38053;SDS011;23859;50.672;7.164;2022-12-13T08:02:39;74.72;;;24.05;;
38053;SDS011;23859;50.672;7.164;2022-12-13T08:05:05;60.67;;;25.35;;
38053;SDS011;23859;50.672;7.164;2022-12-13T08:07:32;67.45;;;25.40;;
38053;SDS011;23859;50.672;7.164;2022-12-13T08:09:58;91.40;;;26.40;;
38053;SDS011;23859;50.672;7.164;2022-12-13T08:12:24;57.85;;;24.80;;
38053;SDS011;23859;50.672;7.164;2022-12-13T08:14:50;68.80;;;26.15;;
38053;SDS011;23859;50.672;7.164;2022-12-13T08:17:16;82.85;;;26.38;;
38053;SDS011;23859;50.672;7.164;2022-12-13T08:19:42;63.75;;;25.05;;
38053;SDS011;23859;50.672;7.164;2022-12-13T08:22:11;65.60;;;24.75;;
38053;SDS011;23859;50.672;7.164;2022-12-13T08:24:38;62.47;;;25.77;;
38053;SDS011;23859;50.672;7.164;2022-12-13T08:27:04;58.78;;;23.23;;
38053;SDS011;23859;50.672;7.164;2022-12-13T08:29:31;55.83;;;23.75;;
38053;SDS011;23859;50.672;7.164;2022-12-13T08:31:58;60.67;;;24.65;;
38053;SDS011;23859;50.672;7.164;2022-12-13T08:34:25;64.55;;;24.85;;
38053;SDS011;23859;50.672;7.164;2022-12-13T08:36:51;61.67;;;25.80;;
38053;SDS011;23859;50.672;7.164;2022-12-13T08:39:17;60.15;;;25.45;;
38053;SDS011;23859;50.672;7.164;2022-12-13T08:41:43;58.67;;;23.35;;
38053;SDS011;23859;50.672;7.164;2022-12-13T08:44:09;56.15;;;23.08;;
38053;SDS011;23859;50.672;7.164;2022-12-13T08:46:35;65.47;;;25.13;;
38053;SDS011;23859;50.672;7.164;2022-12-13T08:49:02;57.83;;;25.30;;
38053;SDS011;23859;50.672;7.164;2022-12-13T08:51:28;50.75;;;21.75;;
38053;SDS011;23859;50.672;7.164;2022-12-13T08:53:54;53.13;;;23.15;;
38053;SDS011;23859;50.672;7.164;2022-12-13T08:56:20;51.30;;;22.33;;
38053;SDS011;23859;50.672;7.164;2022-12-13T08:58:49;52.42;;;22.33;;
38053;SDS011;23859;50.672;7.164;2022-12-13T09:01:16;45.95;;;19.92;;
38053;SDS011;23859;50.672;7.164;2022-12-13T09:03:42;52.08;;;22.15;;
38053;SDS011;23859;50.672;7.164;2022-12-13T09:06:09;52.45;;;23.33;;
38053;SDS011;23859;50.672;7.164;2022-12-13T09:08:38;44.97;;;21.85;;
38053;SDS011;23859;50.672;7.164;2022-12-13T09:11:05;52.22;;;23.38;;
38053;SDS011;23859;50.672;7.164;2022-12-13T09:13:33;45.58;;;21.55;;
38053;SDS011;23859;50.672;7.164;2022-12-13T09:16:05;53.47;;;22.63;;
38053;SDS011;23859;50.672;7.164;2022-12-13T09:18:33;55.38;;;23.55;;
38053;SDS011;23859;50.672;7.164;2022-12-13T09:21:03;52.15;;;22.80;;
38053;SDS011;23859;50.672;7.164;2022-12-13T09:23:31;46.92;;;21.58;;
38053;SDS011;23859;50.672;7.164;2022-12-13T09:25:57;43.97;;;20.75;;
38053;SDS011;23859;50.672;7.164;2022-12-13T09:28:24;46.35;;;22.05;;
38053;SDS011;23859;50.672;7.164;2022-12-13T09:30:51;38.80;;;19.65;;
38053;SDS011;23859;50.672;7.164;2022-12-13T09:33:17;39.72;;;19.85;;
38053;SDS011;23859;50.672;7.164;2022-12-13T09:35:43;45.88;;;19.85;;
38053;SDS011;23859;50.672;7.164;2022-12-13T09:38:09;43.88;;;20.92;;
38053;SDS011;23859;50.672;7.164;2022-12-13T09:40:36;38.35;;;18.17;;
38053;SDS011;23859;50.672;7.164;2022-12-13T09:43:03;43.22;;;19.85;;
38053;SDS011;23859;50.672;7.164;2022-12-13T09:45:31;37.67;;;18.17;;
38053;SDS011;23859;50.672;7.164;2022-12-13T09:47:59;35.28;;;18.50;;
38053;SDS011;23859;50.672;7.164;2022-12-13T09:50:30;39.47;;;19.92;;
38053;SDS011;23859;50.672;7.164;2022-12-13T09:53:03;37.20;;;17.83;;
38053;SDS011;23859;50.672;7.164;2022-12-13T09:55:31;34.95;;;17.10;;
38053;SDS011;23859;50.672;7.164;2022-12-13T09:58:06;35.95;;;18.15;;
38053;SDS011;23859;50.672;7.164;2022-12-13T10:00:48;33.70;;;17.08;;
38053;SDS011;23859;50.672;7.164;2022-12-13T10:03:17;37.90;;;18.88;;
38053;SDS011;23859;50.672;7.164;2022-12-13T10:08:39;37.78;;;19.50;;
38053;SDS011;23859;50.672;7.164;2022-12-13T10:11:12;37.38;;;18.35;;
38053;SDS011;23859;50.672;7.164;2022-12-13T10:13:42;35.85;;;17.95;;
38053;SDS011;23859;50.672;7.164;2022-12-13T10:18:57;35.53;;;16.77;;
38053;SDS011;23859;50.672;7.164;2022-12-13T10:21:24;37.53;;;18.63;;
38053;SDS011;23859;50.672;7.164;2022-12-13T10:24:06;35.63;;;17.38;;
38053;SDS011;23859;50.672;7.164;2022-12-13T10:26:42;37.17;;;18.58;;
38053;SDS011;23859;50.672;7.164;2022-12-13T10:29:08;39.30;;;18.30;;
38053;SDS011;23859;50.672;7.164;2022-12-13T10:31:38;35.70;;;16.45;;
38053;SDS011;23859;50.672;7.164;2022-12-13T10:34:13;32.42;;;17.05;;
38053;SDS011;23859;50.672;7.164;2022-12-13T10:36:47;32.53;;;16.38;;
38053;SDS011;23859;50.672;7.164;2022-12-13T10:42:02;35.58;;;16.90;;
38053;SDS011;23859;50.672;7.164;2022-12-13T10:44:30;45.83;;;18.73;;
38053;SDS011;23859;50.672;7.164;2022-12-13T10:47:01;33.42;;;16.13;;
38053;SDS011;23859;50.672;7.164;2022-12-13T10:49:58;38.67;;;17.13;;
38053;SDS011;23859;50.672;7.164;2022-12-13T10:55:02;32.45;;;16.08;;
38053;SDS011;23859;50.672;7.164;2022-12-13T10:57:30;36.50;;;17.53;;
38053;SDS011;23859;50.672;7.164;2022-12-13T10:59:57;35.58;;;16.40;;
38053;SDS011;23859;50.672;7.164;2022-12-13T11:02:26;34.20;;;15.95;;
38053;SDS011;23859;50.672;7.164;2022-12-13T11:04:53;36.58;;;16.63;;
38053;SDS011;23859;50.672;7.164;2022-12-13T11:07:38;37.30;;;16.40;;
38053;SDS011;23859;50.672;7.164;2022-12-13T11:12:50;32.63;;;14.23;;
38053;SDS011;23859;50.672;7.164;2022-12-13T11:15:21;28.73;;;14.13;;
38053;SDS011;23859;50.672;7.164;2022-12-13T11:17:52;33.38;;;15.05;;
38053;SDS011;23859;50.672;7.164;2022-12-13T11:20:24;36.95;;;16.08;;
38053;SDS011;23859;50.672;7.164;2022-12-13T11:23:24;36.38;;;15.55;;
38053;SDS011;23859;50.672;7.164;2022-12-13T11:25:53;33.83;;;13.60;;
38053;SDS011;23859;50.672;7.164;2022-12-13T11:33:40;26.08;;;12.40;;
38053;SDS011;23859;50.672;7.164;2022-12-13T11:47:36;35.20;;;15.13;;
38053;SDS011;23859;50.672;7.164;2022-12-13T11:50:23;31.58;;;15.30;;
38053;SDS011;23859;50.672;7.164;2022-12-13T11:53:16;33.15;;;16.63;;
38053;SDS011;23859;50.672;7.164;2022-12-13T11:58:57;31.88;;;14.95;;
38053;SDS011;23859;50.672;7.164;2022-12-13T12:01:48;30.50;;;15.07;;
38053;SDS011;23859;50.672;7.164;2022-12-13T12:06:53;32.17;;;14.98;;
38053;SDS011;23859;50.672;7.164;2022-12-13T12:09:30;37.03;;;16.55;;
38053;SDS011;23859;50.672;7.164;2022-12-13T12:12:12;35.63;;;16.15;;
38053;SDS011;23859;50.672;7.164;2022-12-13T12:14:58;30.73;;;14.57;;
38053;SDS011;23859;50.672;7.164;2022-12-13T12:17:44;32.17;;;15.55;;
38053;SDS011;23859;50.672;7.164;2022-12-13T12:20:11;32.65;;;15.20;;
38053;SDS011;23859;50.672;7.164;2022-12-13T12:23:08;31.20;;;14.20;;
38053;SDS011;23859;50.672;7.164;2022-12-13T12:26:05;32.28;;;15.30;;
38053;SDS011;23859;50.672;7.164;2022-12-13T12:36:53;30.55;;;14.73;;
38053;SDS011;23859;50.672;7.164;2022-12-13T12:44:59;29.45;;;14.43;;
38053;SDS011;23859;50.672;7.164;2022-12-13T12:50:52;28.73;;;14.40;;
38053;SDS011;23859;50.672;7.164;2022-12-13T12:53:36;31.35;;;14.27;;
38053;SDS011;23859;50.672;7.164;2022-12-13T13:04:58;37.58;;;17.00;;
38053;SDS011;23859;50.672;7.164;2022-12-13T13:07:37;30.25;;;14.50;;
38053;SDS011;23859;50.672;7.164;2022-12-13T13:10:11;36.85;;;16.15;;
38053;SDS011;23859;50.672;7.164;2022-12-13T13:12:39;33.83;;;15.77;;
38053;SDS011;23859;50.672;7.164;2022-12-13T13:17:57;36.05;;;14.73;;
38053;SDS011;23859;50.672;7.164;2022-12-13T13:20:25;34.15;;;16.33;;
38053;SDS011;23859;50.672;7.164;2022-12-13T13:22:55;38.10;;;17.02;;
38053;SDS011;23859;50.672;7.164;2022-12-13T13:25:29;31.65;;;15.82;;
38053;SDS011;23859;50.672;7.164;2022-12-13T13:28:16;36.88;;;17.23;;
38053;SDS011;23859;50.672;7.164;2022-12-13T13:31:04;35.78;;;16.83;;
38053;SDS011;23859;50.672;7.164;2022-12-13T13:33:46;36.95;;;16.38;;
38053;SDS011;23859;50.672;7.164;2022-12-13T13:39:17;32.25;;;15.73;;
38053;SDS011;23859;50.672;7.164;2022-12-13T13:42:07;35.50;;;17.15;;
38053;SDS011;23859;50.672;7.164;2022-12-13T13:47:15;35.22;;;16.35;;
38053;SDS011;23859;50.672;7.164;2022-12-13T13:49:50;36.53;;;16.00;;
38053;SDS011;23859;50.672;7.164;2022-12-13T14:00:53;29.55;;;15.00;;
38053;SDS011;23859;50.672;7.164;2022-12-13T14:03:50;35.17;;;16.00;;
38053;SDS011;23859;50.672;7.164;2022-12-13T14:13:06;33.20;;;16.35;;
38053;SDS011;23859;50.672;7.164;2022-12-13T14:24:03;39.88;;;17.85;;
38053;SDS011;23859;50.672;7.164;2022-12-13T14:29:31;38.10;;;16.35;;
38053;SDS011;23859;50.672;7.164;2022-12-13T14:32:07;32.95;;;16.38;;
38053;SDS011;23859;50.672;7.164;2022-12-13T14:34:35;40.30;;;18.55;;
38053;SDS011;23859;50.672;7.164;2022-12-13T14:37:03;38.22;;;17.30;;
38053;SDS011;23859;50.672;7.164;2022-12-13T14:39:42;39.67;;;18.90;;
38053;SDS011;23859;50.672;7.164;2022-12-13T14:42:25;37.72;;;18.65;;
38053;SDS011;23859;50.672;7.164;2022-12-13T14:45:43;27.20;;;12.40;;
38053;SDS011;23859;50.672;7.164;2022-12-13T14:47:48;27.85;;;12.80;;
38053;SDS011;23859;50.672;7.164;2022-12-13T14:50:17;31.08;;;13.02;;
38053;SDS011;23859;50.672;7.164;2022-12-13T14:52:43;34.67;;;14.45;;
38053;SDS011;23859;50.672;7.164;2022-12-13T14:58:25;35.03;;;12.70;;
38053;SDS011;23859;50.672;7.164;2022-12-13T15:00:52;30.85;;;11.80;;
38053;SDS011;23859;50.672;7.164;2022-12-13T15:03:22;38.10;;;13.52;;
38053;SDS011;23859;50.672;7.164;2022-12-13T15:05:57;35.60;;;13.70;;
38053;SDS011;23859;50.672;7.164;2022-12-13T15:08:24;32.47;;;13.98;;
38053;SDS011;23859;50.672;7.164;2022-12-13T15:10:55;35.15;;;12.90;;
38053;SDS011;23859;50.672;7.164;2022-12-13T15:13:39;35.38;;;16.00;;
38053;SDS011;23859;50.672;7.164;2022-12-13T15:16:24;31.92;;;13.25;;
38053;SDS011;23859;50.672;7.164;2022-12-13T15:19:05;31.08;;;13.07;;
38053;SDS011;23859;50.672;7.164;2022-12-13T15:21:37;29.00;;;14.98;;
38053;SDS011;23859;50.672;7.164;2022-12-13T15:24:04;29.00;;;13.40;;
38053;SDS011;23859;50.672;7.164;2022-12-13T15:26:31;44.28;;;14.77;;
38053;SDS011;23859;50.672;7.164;2022-12-13T15:29:03;36.17;;;14.88;;
38053;SDS011;23859;50.672;7.164;2022-12-13T15:31:31;33.60;;;13.68;;
38053;SDS011;23859;50.672;7.164;2022-12-13T15:34:40;31.23;;;13.82;;
38053;SDS011;23859;50.672;7.164;2022-12-13T15:36:57;35.83;;;13.45;;
38053;SDS011;23859;50.672;7.164;2022-12-13T15:39:25;32.27;;;14.53;;
38053;SDS011;23859;50.672;7.164;2022-12-13T15:41:53;30.75;;;13.25;;
38053;SDS011;23859;50.672;7.164;2022-12-13T15:44:33;32.60;;;13.48;;
38053;SDS011;23859;50.672;7.164;2022-12-13T15:47:11;29.77;;;13.40;;
38053;SDS011;23859;50.672;7.164;2022-12-13T15:49:40;24.23;;;12.30;;
38053;SDS011;23859;50.672;7.164;2022-12-13T15:54:41;29.83;;;12.40;;
38053;SDS011;23859;50.672;7.164;2022-12-13T15:57:22;27.27;;;13.10;;
38053;SDS011;23859;50.672;7.164;2022-12-13T16:00:35;27.70;;;12.07;;
38053;SDS011;23859;50.672;7.164;2022-12-13T16:02:50;28.58;;;12.15;;
38053;SDS011;23859;50.672;7.164;2022-12-13T16:05:51;28.15;;;12.70;;
38053;SDS011;23859;50.672;7.164;2022-12-13T16:08:23;30.08;;;13.32;;
38053;SDS011;23859;50.672;7.164;2022-12-13T16:10:52;30.38;;;14.48;;
38053;SDS011;23859;50.672;7.164;2022-12-13T16:13:21;28.65;;;13.90;;
38053;SDS011;23859;50.672;7.164;2022-12-13T16:15:49;27.52;;;14.30;;
38053;SDS011;23859;50.672;7.164;2022-12-13T16:18:21;25.13;;;13.13;;
38053;SDS011;23859;50.672;7.164;2022-12-13T16:20:54;29.33;;;14.50;;
38053;SDS011;23859;50.672;7.164;2022-12-13T16:23:21;26.48;;;12.80;;
38053;SDS011;23859;50.672;7.164;2022-12-13T16:25:47;29.27;;;13.40;;
38053;SDS011;23859;50.672;7.164;2022-12-13T16:28:14;30.55;;;14.38;;
38053;SDS011;23859;50.672;7.164;2022-12-13T16:31:01;26.50;;;13.07;;
38053;SDS011;23859;50.672;7.164;2022-12-13T16:33:41;32.20;;;14.52;;
38053;SDS011;23859;50.672;7.164;2022-12-13T16:36:09;33.58;;;15.32;;
38053;SDS011;23859;50.672;7.164;2022-12-13T16:38:35;31.40;;;13.50;;
38053;SDS011;23859;50.672;7.164;2022-12-13T16:41:02;31.17;;;15.93;;
38053;SDS011;23859;50.672;7.164;2022-12-13T16:43:28;27.55;;;12.27;;